Chicago, IL (60617)

3:55 PM CDT on April 25, 2015 (GMT -0500)
Whiting/Robertsdale | | Change Station
CLOSE
Current Station
Personal Weather Station
Location: Whiting, IN
Elevation: 594 ft
Nearby Weather Stations

Elev 594 ft 41.68 °N, 87.51 °W | Updated 11 minutes ago

Rain
Rain
45.9 °F
Feels Like 39 °F
N
15.0
Wind Variable Wind from NE
Gusts 18.0 mph

Today
High -- | Low -- °F
--% Chance of Precip.
Yesterday
High -- | Low -- °F
Precip. -- in
5:55 AM 7:41 PM
Waxing Crescent, 49% visible
Pressure 29.70 in
Visibility 5.0 miles
Clouds Scattered Clouds 3200 ft
Mostly Cloudy 3900 ft
Mostly Cloudy 8000 ft
Windchill 39 °F
Dew Point 44 °F
Humidity 93%
Rainfall 0.54 in
Snow Depth Not available.
UV 3 out of 12
Pollen 1.40 out of 12
Air Quality Not available.
Flu Activity Regional
METAR KGYY 252045Z 06016G32KT 5SM -RA SCT032 BKN039 BKN080 08/05 A2970

More Conditions Fewer Conditions

Pressure 29.70 in
Visibility 5.0 miles
Clouds Scattered Clouds 3200 ft
Mostly Cloudy 3900 ft
Mostly Cloudy 8000 ft
Windchill 39 °F
Dew Point 44 °F
Humidity 93%
Rainfall 0.54 in
Snow Depth Not available.
UV 3 out of 12
Pollen 1.40 out of 12
Air Quality Not available.
Flu Activity Regional
METAR KGYY 252045Z 06016G32KT 5SM -RA SCT032 BKN039 BKN080 08/05 A2970

More Conditions Fewer Conditions

10-Day Weather Forecast

Almanac

Astronomy

Apr. 25, 2015 Rise Set
Actual Time
Civil Twilight
Nautical Twilight
Astronomical Twilight
Moon
Length of Visible Light
Length of Day
Tomorrow will be .
, % of the Moon is Illuminated

Today's Extremes

State Highs State Lows

Community

WunderPhotos

Upload Photos

1,816,798 photos uploaded!

WunderBlogs® & News

Nearby

Air Quality

  Air Quality AQ Index Pollutant
Not available.

Snow Depth

Station Depth Elevation

Earthquake Activity

City Distance Mag. Time & Date
Minimum magnitude displayed is 2.5.

Coastal Water Temperatures

Place Temperature

Stations

Nearby Weather Stations

Station Location Temp. Windchill Dew Point Humidity Wind Precip. Elev Updated Type